Quick Links (Output Below):   Max & Min Temps   /   Climate Reports   /   Zone Forecasts
River Forecasts   /   Forestry Forecasts   /   Aviation Forecasts   /   Radars   /   Features

Terminal Aerodrome Forecast (Mountain Home)

Pick a Site:
Arkadelphia | El Dorado | Fayetteville | Fort Smith | Harrison | Highfill | Hot Springs | Jonesboro
Little Rock | Monticello | Mountain Home | Pine Bluff | Texarkana
 Forecast 

KBPK 041113Z 0411/0506 00000KT 6SM BR SCT015 BKN040
     FM041400 11007KT P6SM SCT035 BKN100
     FM041800 12005KT P6SM VCSH SCT050 SCT250=


 Latest METARs (Observations) 
How to Decode METARs
13Z KBPK 041253Z AUTO 00000KT 4SM BR OVC045 20/19 A3000 RMK AO2 SLP152
         T02000194
         
12Z KBPK 041153Z AUTO 00000KT 5SM BR OVC042 20/19 A2998 RMK AO2 SLP144
         70063 T02000189 10206 20194 53015
         
09Z KBPK 040853Z AUTO 00000KT 6SM BR CLR 20/19 A2993 RMK AO2 SLP126
         T02000194 50001
         
08Z KBPK 040753Z AUTO 00000KT 5SM BR CLR 20/19 A2994 RMK AO2 SLP127
         T02000194
         
03Z KBPK 040253Z AUTO 35003KT 8SM CLR 20/20 A2992 RMK AO2 SLP123
         T02000200 53013
         
01Z KBPK 040053Z AUTO 00000KT 9SM CLR 21/21 A2989 RMK AO2 SLP112
         T02110206
         
***** Today's Observations (Above) *****


22Z KBPK 032153Z AUTO 17006KT 10SM FEW021 SCT028 BKN070 26/22 A2986
         RMK AO2 LTG DSNT S SLP103 T02560217
         
20Z KBPK 031953Z AUTO VRB04KT 10SM TS FEW085 28/21 A2987 RMK AO2 LTG
         DSNT E AND SE RAB23E32 TSB53 SLP106 P0000 T02780206
         
19Z KBPK 031853Z AUTO VRB04KT 10SM FEW028 SCT034 28/21 A2989 RMK AO2
         LTG DSNT NE SLP110 T02830211
         
18Z KBPK 031753Z AUTO VRB03KT 10SM CLR 28/21 A2990 RMK AO2 LTG DSNT NE
         AND NW SLP116 T02780206 10278 20206 58003
         
***** Yesterday's Observations (Above) *****


Back to Main Page
http://www.srh.noaa.gov/lzk/qfcst.php

USA.gov is the U.S. government's official web portal to all federal, state and local government web resources and services.